Time;durP1;ratioP1;P1;durP2;ratioP2;P2;SDS_P1;SDS_P2;PMS_P1;PMS_P2;Temp;Humidity;BMP_temperature;BMP_pressure;BME280_temperature;BME280_humidity;BME280_pressure;Samples;Min_cycle;Max_cycle;Signal;HPM_P1;HPM_P2
2021/08/17 00:01:10;;;;;;;;;;;;;;;27.78;41.05;98865.67;389834;106;1960055;-71
2021/08/17 00:02:15;;;;;;;;;;;;;;;27.66;41.03;98873.95;361662;109;2936011;-71
2021/08/17 00:03:38;;;;;;;;;;;;;;;27.68;41.02;98866.08;366664;109;1959907;-71
2021/08/17 00:04:50;;;;;;;;;;;;;;;27.73;41.25;98872.27;391949;106;1961096;-70
2021/08/17 00:05:55;;;;;;;;;;;;;;;27.60;41.15;98871.39;372525;109;1959983;-70
2021/08/17 00:07:00;;;;;;;;;;;;;;;27.60;41.24;98873.32;369797;109;1960056;-71
2021/08/17 00:08:12;;;;;;;;;;;;;;;27.70;41.34;98872.11;399251;104;1959904;-71
2021/08/17 00:09:18;;;;;;;;;;;;;;;27.58;41.20;98870.09;372363;107;1959844;-72
2021/08/17 00:10:30;;;;;;;;;;;;;;;27.68;41.32;98866.92;397056;104;1960905;-71
2021/08/17 00:11:35;;;;;;;;;;;;;;;27.59;41.49;98874.48;370213;105;1959976;-71
2021/08/17 00:12:40;;;;;;;;;;;;;;;27.60;41.30;98873.32;333144;106;2109960;-72
2021/08/17 00:13:47;;;;;;;;;;;;;;;27.57;41.49;98868.45;342006;106;2015991;-72
2021/08/17 00:14:59;;;;;;;;;;;;;;;27.70;41.39;98874.88;399015;104;1960002;-72
2021/08/17 00:16:05;;;;;;;;;;;;;;;27.54;41.53;98871.91;377712;107;1960020;-71
2021/08/17 00:17:17;;;;;;;;;;;;;;;27.62;41.51;98871.83;384772;104;1961973;-72
2021/08/17 00:18:22;;;;;;;;;;;;;;;27.53;41.52;98871.11;335569;107;2103892;-72
2021/08/17 00:19:27;;;;;;;;;;;;;;;27.51;41.61;98864.27;306613;106;2365012;-71
2021/08/17 00:20:39;;;;;;;;;;;;;;;27.60;41.65;98863.06;390464;106;1960017;-72
2021/08/17 00:21:44;;;;;;;;;;;;;;;27.43;41.75;98865.95;373424;109;1961029;-73
2021/08/17 00:22:49;;;;;;;;;;;;;;;27.41;41.89;98859.92;371030;109;1961109;-72
2021/08/17 00:23:56;;;;;;;;;;;;;;;27.47;41.74;98863.31;368300;109;1960022;-72
2021/08/17 00:25:10;;;;;;;;;;;;;;;27.60;41.87;98860.28;346445;103;2213979;-71
2021/08/17 00:26:15;;;;;;;;;;;;;;;27.49;41.86;98864.59;377722;105;1961029;-72
2021/08/17 00:27:20;;;;;;;;;;;;;;;27.46;41.78;98864.47;369580;105;1959847;-71
2021/08/17 00:28:25;;;;;;;;;;;;;;;27.46;41.75;98864.47;347242;107;1958658;-71
2021/08/17 00:29:41;;;;;;;;;;;;;;;27.52;41.99;98863.11;364836;104;2550987;-70
2021/08/17 00:30:47;;;;;;;;;;;;;;;27.40;42.17;98869.41;377472;107;1960153;-73
2021/08/17 00:31:51;;;;;;;;;;;;;;;27.42;42.08;98872.66;354720;107;1959958;-69
2021/08/17 00:33:04;;;;;;;;;;;;;;;27.49;42.07;98869.34;394880;106;1959979;-72
2021/08/17 00:34:08;;;;;;;;;;;;;;;27.35;42.27;98873.19;380019;106;1959900;-72
2021/08/17 00:35:24;;;;;;;;;;;;;;;27.46;42.33;98870.83;398005;104;1959999;-71
2021/08/17 00:36:30;;;;;;;;;;;;;;;27.33;42.21;98866.34;376145;107;1959989;-72
2021/08/17 00:37:54;;;;;;;;;;;;;;;27.30;42.39;98873.37;337278;107;2536027;-71
2021/08/17 00:39:01;;;;;;;;;;;;;;;27.30;42.35;98867.84;370407;109;1959992;-72
2021/08/17 00:40:06;;;;;;;;;;;;;;;27.29;42.29;98866.22;371217;108;1960023;-72
2021/08/17 00:41:19;;;;;;;;;;;;;;;27.42;42.43;98863.54;390835;106;1959986;-69
2021/08/17 00:42:24;;;;;;;;;;;;;;;27.30;42.45;98865.06;373296;108;1959987;-71
2021/08/17 00:43:29;;;;;;;;;;;;;;;27.27;42.42;98862.97;373801;109;1960977;-71
2021/08/17 00:44:35;;;;;;;;;;;;;;;27.26;42.54;98864.13;371176;107;1960046;-71
2021/08/17 00:45:40;;;;;;;;;;;;;;;27.26;42.51;98861.36;373705;108;1960944;-72
2021/08/17 00:46:46;;;;;;;;;;;;;;;27.27;42.49;98862.16;326203;109;2794056;-71
2021/08/17 00:47:53;;;;;;;;;;;;;;;27.25;42.67;98858.91;318309;108;2199829;-72
2021/08/17 00:49:05;;;;;;;;;;;;;;;27.37;42.66;98854.25;391891;106;1960060;-71
2021/08/17 00:50:12;;;;;;;;;;;;;;;27.26;42.69;98864.13;370349;109;1960019;-71
2021/08/17 00:51:17;;;;;;;;;;;;;;;27.28;42.54;98869.32;369027;109;1959970;-72
2021/08/17 00:52:22;;;;;;;;;;;;;;;27.26;42.56;98866.09;368855;109;1960041;-72
2021/08/17 00:53:29;;;;;;;;;;;;;;;27.24;42.64;98860.88;325491;109;2082920;-72
2021/08/17 00:54:44;;;;;;;;;;;;;;;27.34;42.59;98860.48;402783;104;1959979;-71
2021/08/17 00:55:50;;;;;;;;;;;;;;;27.23;42.79;98867.58;335304;105;2149977;-70
2021/08/17 00:56:56;;;;;;;;;;;;;;;27.21;42.70;98861.55;374840;105;1960052;-71
2021/08/17 00:58:01;;;;;;;;;;;;;;;27.21;42.92;98860.74;386042;105;1960025;-73
2021/08/17 00:59:06;;;;;;;;;;;;;;;27.18;42.65;98857.48;378694;107;1960987;-72
2021/08/17 01:00:18;;;;;;;;;;;;;;;27.28;42.72;98870.12;396463;104;1959920;-71
2021/08/17 01:01:23;;;;;;;;;;;;;;;27.15;42.81;98872.00;380700;106;1960026;-72
2021/08/17 01:02:28;;;;;;;;;;;;;;;27.17;42.86;98872.48;379965;105;1959964;-71
2021/08/17 01:03:36;;;;;;;;;;;;;;;27.15;42.83;98879.48;376645;106;1960044;-71
2021/08/17 01:04:48;;;;;;;;;;;;;;;27.24;42.83;98866.42;374628;106;1959963;-70
2021/08/17 01:05:53;;;;;;;;;;;;;;;27.12;42.91;98867.09;314972;107;2206981;-71
2021/08/17 01:06:58;;;;;;;;;;;;;;;27.12;42.85;98869.87;315876;109;2205051;-71
2021/08/17 01:08:06;;;;;;;;;;;;;;;27.09;43.13;98867.77;312696;109;2247999;-70
2021/08/17 01:09:18;;;;;;;;;;;;;;;27.21;43.11;98877.38;396455;104;1960769;-71
2021/08/17 01:10:24;;;;;;;;;;;;;;;27.12;42.99;98866.29;339350;105;2636054;-71
2021/08/17 01:11:30;;;;;;;;;;;;;;;27.10;43.11;98869.41;304403;107;2374060;-72
2021/08/17 01:12:35;;;;;;;;;;;;;;;27.11;43.01;98868.26;352498;106;1959986;-72
2021/08/17 01:13:50;;;;;;;;;;;;;;;27.25;43.10;98868.03;389697;104;1959977;-72
2021/08/17 01:14:56;;;;;;;;;;;;;;;27.11;42.97;98868.26;330608;107;2516860;-72
2021/08/17 01:16:08;;;;;;;;;;;;;;;27.21;43.15;98869.06;395958;104;1961052;-72
2021/08/17 01:17:13;;;;;;;;;;;;;;;27.08;43.19;98874.47;377124;107;1959902;-72
2021/08/17 01:18:36;;;;;;;;;;;;;;;27.08;43.18;98866.16;366276;107;2949975;-71
2021/08/17 01:19:41;;;;;;;;;;;;;;;27.07;43.23;98869.25;374073;107;1960067;-72
2021/08/17 01:20:48;;;;;;;;;;;;;;;27.07;43.26;98869.25;372059;107;1960980;-71
2021/08/17 01:21:54;;;;;;;;;;;;;;;27.06;43.19;98871.22;371272;108;1959883;-72
2021/08/17 01:23:05;;;;;;;;;;;;;;;27.17;43.14;98869.70;400363;104;1959981;-72
2021/08/17 01:24:10;;;;;;;;;;;;;;;27.06;43.18;98871.22;376781;105;1960073;-71
2021/08/17 01:25:16;;;;;;;;;;;;;;;27.05;43.44;98875.16;379934;106;1961011;-71
2021/08/17 01:26:27;;;;;;;;;;;;;;;27.13;43.42;98873.48;398171;104;1960045;-71
2021/08/17 01:27:32;;;;;;;;;;;;;;;26.99;43.42;98870.92;377731;106;1959793;-71
2021/08/17 01:28:37;;;;;;;;;;;;;;;27.03;43.46;98873.86;380303;106;1959980;-71
2021/08/17 01:29:42;;;;;;;;;;;;;;;27.09;43.40;98876.09;385404;106;1960043;-72
2021/08/17 01:30:49;;;;;;;;;;;;;;;27.08;43.43;98874.47;382785;106;1958814;-72
2021/08/17 01:31:57;;;;;;;;;;;;;;;27.07;43.37;98874.80;382734;106;1959919;-72
2021/08/17 01:33:02;;;;;;;;;;;;;;;27.08;43.30;98877.25;321261;106;2255871;-72
2021/08/17 01:34:07;;;;;;;;;;;;;;;27.05;43.42;98877.11;308936;106;2364745;-73
2021/08/17 01:35:19;;;;;;;;;;;;;;;27.16;43.37;98870.84;398640;103;1959875;-73
2021/08/17 01:36:24;;;;;;;;;;;;;;;27.02;43.48;98874.98;381398;106;1958715;-71
2021/08/17 01:37:29;;;;;;;;;;;;;;;27.05;43.49;98875.16;380693;106;1958785;-71
2021/08/17 01:38:36;;;;;;;;;;;;;;;27.01;43.64;98876.14;363247;108;1958883;-71
2021/08/17 01:39:41;;;;;;;;;;;;;;;27.04;43.45;98870.73;365956;111;1959818;-72
2021/08/17 01:40:47;;;;;;;;;;;;;;;27.02;43.58;98872.22;361154;112;1958953;-70
2021/08/17 01:41:59;;;;;;;;;;;;;;;27.14;43.50;98872.31;400269;104;1958857;-71
2021/08/17 01:43:04;;;;;;;;;;;;;;;26.96;43.60;98869.66;379735;107;1958824;-71
2021/08/17 01:44:17;;;;;;;;;;;;;;;27.09;43.62;98875.28;392283;104;1960864;-71
2021/08/17 01:45:22;;;;;;;;;;;;;;;26.99;43.63;98879.23;379501;105;1961874;-71
2021/08/17 01:46:46;;;;;;;;;;;;;;;26.97;43.60;98871.28;379847;107;1960916;-73
2021/08/17 01:47:52;;;;;;;;;;;;;;;26.93;43.79;98875.05;316153;106;2430946;-72
2021/08/17 01:48:58;;;;;;;;;;;;;;;26.91;43.70;98877.33;374040;107;1959974;-71
2021/08/17 01:50:12;;;;;;;;;;;;;;;27.02;43.69;98866.67;392804;105;1959936;-72
2021/08/17 01:51:17;;;;;;;;;;;;;;;26.92;43.68;98877.00;375043;107;1959993;-72
2021/08/17 01:52:22;;;;;;;;;;;;;;;26.89;43.87;98869.36;374732;107;1962939;-71
2021/08/17 01:53:28;;;;;;;;;;;;;;;26.88;43.70;98870.49;373728;107;1960031;-71
2021/08/17 01:54:40;;;;;;;;;;;;;;;27.01;43.74;98873.37;393155;106;1960086;-71
2021/08/17 01:55:45;;;;;;;;;;;;;;;26.92;43.75;98863.15;377651;107;1961357;-71
2021/08/17 01:56:57;;;;;;;;;;;;;;;27.01;43.71;98870.60;399443;104;1959982;-72
2021/08/17 01:58:02;;;;;;;;;;;;;;;26.89;43.75;98866.59;377851;107;1959990;-71
2021/08/17 01:59:25;;;;;;;;;;;;;;;26.88;43.75;98867.72;333295;107;2050784;-73
2021/08/17 02:00:31;;;;;;;;;;;;;;;26.86;43.77;98871.97;349113;107;1960930;-70
2021/08/17 02:01:37;;;;;;;;;;;;;;;26.84;43.74;98869.55;373108;108;1960756;-70
2021/08/17 02:02:42;;;;;;;;;;;;;;;26.83;43.87;98864.33;369065;108;1959995;-71
2021/08/17 02:03:47;;;;;;;;;;;;;;;26.82;43.98;98871.03;373157;107;1959934;-72
2021/08/17 02:04:52;;;;;;;;;;;;;;;26.79;43.94;98864.20;362209;107;1960018;-71
2021/08/17 02:06:04;;;;;;;;;;;;;;;26.90;44.00;98853.55;402197;104;1960024;-72
2021/08/17 02:07:09;;;;;;;;;;;;;;;26.78;44.17;98862.58;383131;105;1960019;-72
2021/08/17 02:08:21;;;;;;;;;;;;;;;26.89;44.07;98863.82;393842;104;1961043;-71
2021/08/17 02:09:26;;;;;;;;;;;;;;;26.79;43.93;98861.42;375265;107;1959992;-71
2021/08/17 02:10:51;;;;;;;;;;;;;;;26.80;44.03;98857.50;373477;107;1959981;-72
2021/08/17 02:11:56;;;;;;;;;;;;;;;26.77;44.05;98862.91;374128;107;1960073;-72
2021/08/17 02:13:01;;;;;;;;;;;;;;;26.74;44.19;98856.88;374394;107;1960079;-72
2021/08/17 02:14:14;;;;;;;;;;;;;;;26.84;44.10;98855.70;390570;106;1959905;-72
2021/08/17 02:15:19;;;;;;;;;;;;;;;26.72;44.25;98847.27;371411;109;1959941;-72
2021/08/17 02:16:31;;;;;;;;;;;;;;;26.85;44.15;98849.00;389859;104;1960987;-70
2021/08/17 02:17:36;;;;;;;;;;;;;;;26.72;44.29;98852.81;372296;105;1960040;-71
2021/08/17 02:19:00;;;;;;;;;;;;;;;26.76;44.12;98853.78;378851;107;1959928;-71
2021/08/17 02:20:13;;;;;;;;;;;;;;;26.86;44.18;98844.27;390074;103;1960050;-71
2021/08/17 02:21:17;;;;;;;;;;;;;;;26.76;44.18;98853.78;368520;105;1961019;-72
2021/08/17 02:22:29;;;;;;;;;;;;;;;26.83;44.26;98848.51;398417;104;1960991;-72
2021/08/17 02:23:38;;;;;;;;;;;;;;;26.71;44.32;98848.42;375196;107;1960024;-72
2021/08/17 02:25:01;;;;;;;;;;;;;;;26.70;44.32;98844.84;369448;108;1959931;-72
2021/08/17 02:26:14;;;;;;;;;;;;;;;26.81;44.29;98844.48;355389;104;2842014;-72
2021/08/17 02:27:20;;;;;;;;;;;;;;;26.68;44.30;98846.33;318500;107;2424992;-72
2021/08/17 02:28:25;;;;;;;;;;;;;;;26.67;44.46;98844.69;367059;107;1961041;-71
2021/08/17 02:29:37;;;;;;;;;;;;;;;26.75;44.55;98843.83;389643;106;1959925;-72
2021/08/17 02:30:42;;;;;;;;;;;;;;;26.69;44.34;98842.40;374650;107;1958769;-71
2021/08/17 02:31:48;;;;;;;;;;;;;;;26.62;44.52;98842.94;371329;110;1958704;-71
2021/08/17 02:33:00;;;;;;;;;;;;;;;26.73;44.55;98841.41;390806;106;1960065;-77
2021/08/17 02:34:05;;;;;;;;;;;;;;;26.55;44.89;98839.05;365581;110;1959976;-77
2021/08/17 02:35:17;;;;;;;;;;;;;;;26.72;44.75;98838.95;401238;104;1958615;-71
2021/08/17 02:36:22;;;;;;;;;;;;;;;26.57;44.69;98840.34;377354;103;1958622;-72
2021/08/17 02:37:47;;;;;;;;;;;;;;;26.58;44.70;98832.84;379600;106;1959035;-71
2021/08/17 02:38:58;;;;;;;;;;;;;;;26.66;44.70;98841.11;398359;102;1958846;-71
2021/08/17 02:40:04;;;;;;;;;;;;;;;26.55;44.76;98839.86;367046;104;1958747;-71
2021/08/17 02:41:16;;;;;;;;;;;;;;;26.65;44.75;98839.50;397084;104;1958739;-71
2021/08/17 02:42:21;;;;;;;;;;;;;;;26.60;44.71;98838.88;380209;106;1959868;-71
2021/08/17 02:43:44;;;;;;;;;;;;;;;26.63;44.73;98843.74;327288;106;2473754;-71
2021/08/17 02:44:56;;;;;;;;;;;;;;;26.71;44.62;98829.84;398337;103;1958785;-71
2021/08/17 02:46:01;;;;;;;;;;;;;;;26.52;44.90;98835.80;377250;105;1959766;-71
2021/08/17 02:47:07;;;;;;;;;;;;;;;26.55;44.75;98841.82;378640;105;1958880;-72
2021/08/17 02:48:12;;;;;;;;;;;;;;;26.52;44.80;98835.80;379412;105;1958783;-72
2021/08/17 02:49:23;;;;;;;;;;;;;;;26.65;44.85;98831.19;397775;104;1958749;-72
2021/08/17 02:50:31;;;;;;;;;;;;;;;26.51;44.96;98836.92;380438;105;1958679;-72
2021/08/17 02:51:36;;;;;;;;;;;;;;;26.48;44.96;98839.52;371223;106;2917738;-72
2021/08/17 02:52:48;;;;;;;;;;;;;;;26.58;44.90;98832.84;401797;103;1958736;-72
2021/08/17 02:53:53;;;;;;;;;;;;;;;26.51;44.81;98831.38;361471;106;1958782;-72
2021/08/17 02:55:06;;;;;;;;;;;;;;;26.66;44.80;98840.30;391921;106;1958810;-72
2021/08/17 02:56:11;;;;;;;;;;;;;;;26.50;44.94;98840.81;371550;107;1958780;-72
2021/08/17 02:57:34;;;;;;;;;;;;;;;26.51;44.90;98842.46;360022;106;1958896;-72
2021/08/17 02:58:39;;;;;;;;;;;;;;;26.47;44.94;98835.95;332595;108;2008721;-72
2021/08/17 02:59:51;;;;;;;;;;;;;;;26.61;44.88;98835.75;400219;102;1958776;-73
2021/08/17 03:00:56;;;;;;;;;;;;;;;26.51;44.85;98845.23;380874;106;1959745;-73
2021/08/17 03:02:02;;;;;;;;;;;;;;;26.51;44.84;98836.92;380711;106;1959046;-69
2021/08/17 03:03:14;;;;;;;;;;;;;;;26.63;44.87;98832.66;390533;105;1960049;-71
2021/08/17 03:04:20;;;;;;;;;;;;;;;26.51;44.84;98839.69;373359;109;1960993;-70
2021/08/17 03:05:32;;;;;;;;;;;;;;;26.66;44.66;98834.76;397345;103;1960988;-72
2021/08/17 03:06:37;;;;;;;;;;;;;;;26.56;44.67;98830.39;381616;107;1961029;-71
2021/08/17 03:07:52;;;;;;;;;;;;;;;26.60;44.54;98827.80;368476;107;1959820;-71
2021/08/17 03:08:58;;;;;;;;;;;;;;;26.56;44.70;98840.66;378994;105;1961001;-71
2021/08/17 03:10:04;;;;;;;;;;;;;;;26.50;44.87;98840.02;378755;106;1960031;-71
2021/08/17 03:11:09;;;;;;;;;;;;;;;26.53;44.69;98844.91;378406;105;1959942;-71
2021/08/17 03:12:21;;;;;;;;;;;;;;;26.63;44.79;98838.20;392041;105;1959914;-68
2021/08/17 03:13:26;;;;;;;;;;;;;;;26.54;44.64;98838.22;374174;107;1960183;-72
2021/08/17 03:14:31;;;;;;;;;;;;;;;26.56;44.60;98837.89;364644;111;1960002;-72
2021/08/17 03:15:43;;;;;;;;;;;;;;;26.67;44.64;98836.38;395919;104;1959971;-71
2021/08/17 03:16:48;;;;;;;;;;;;;;;26.56;44.63;98844.24;379694;107;1960052;-71
2021/08/17 03:18:01;;;;;;;;;;;;;;;26.72;44.39;98834.22;384799;104;1961009;-70
2021/08/17 03:19:06;;;;;;;;;;;;;;;26.61;44.43;98834.95;373743;107;1959929;-72
2021/08/17 03:20:31;;;;;;;;;;;;;;;26.61;44.37;98835.75;322228;107;2164064;-71
2021/08/17 03:21:36;;;;;;;;;;;;;;;26.62;44.36;98837.39;368473;107;1960025;-71
2021/08/17 03:22:42;;;;;;;;;;;;;;;26.63;44.33;98829.89;357896;107;1959896;-71
2021/08/17 03:23:53;;;;;;;;;;;;;;;26.72;44.31;98836.19;392222;104;1961957;-71
2021/08/17 03:24:58;;;;;;;;;;;;;;;26.64;44.19;98837.05;373403;107;1959991;-71
2021/08/17 03:26:10;;;;;;;;;;;;;;;26.78;44.11;98834.87;397875;104;1959931;-71
2021/08/17 03:27:15;;;;;;;;;;;;;;;26.72;44.09;98827.87;387238;105;1959973;-71
2021/08/17 03:28:20;;;;;;;;;;;;;;;26.74;44.04;98840.25;378336;106;1959817;-71
2021/08/17 03:29:25;;;;;;;;;;;;;;;26.75;43.97;98835.52;376012;107;1959924;-71
2021/08/17 03:30:30;;;;;;;;;;;;;;;26.75;43.94;98830.81;375302;107;1960047;-70
2021/08/17 03:31:35;;;;;;;;;;;;;;;26.77;44.00;98837.97;373787;108;1960071;-72
2021/08/17 03:32:47;;;;;;;;;;;;;;;26.86;43.89;98827.63;397437;104;1959851;-71
2021/08/17 03:33:52;;;;;;;;;;;;;;;26.77;43.87;98833.23;372929;107;1960071;-71
2021/08/17 03:34:57;;;;;;;;;;;;;;;26.77;43.89;98830.46;373367;108;1958895;-71
2021/08/17 03:36:06;;;;;;;;;;;;;;;26.77;43.88;98832.42;373374;109;1959892;-71
2021/08/17 03:37:18;;;;;;;;;;;;;;;26.92;43.86;98829.09;399135;104;1960155;-78
2021/08/17 03:38:23;;;;;;;;;;;;;;;26.80;43.86;98827.02;377474;105;1960100;-78
2021/08/17 03:39:28;;;;;;;;;;;;;;;26.82;43.78;98826.70;374449;107;1960007;-78
2021/08/17 03:40:41;;;;;;;;;;;;;;;26.94;43.69;98827.61;398786;104;1958761;-70
2021/08/17 03:41:46;;;;;;;;;;;;;;;26.84;43.64;98827.98;379452;103;1958778;-71
2021/08/17 03:42:51;;;;;;;;;;;;;;;26.87;43.55;98829.27;381790;106;1958827;-72
2021/08/17 03:43:57;;;;;;;;;;;;;;;26.91;43.44;98830.22;374185;103;2929773;-71
2021/08/17 03:45:02;;;;;;;;;;;;;;;26.89;43.42;98822.25;378191;107;1959884;-71
2021/08/17 03:46:09;;;;;;;;;;;;;;;26.93;43.34;98830.70;340837;106;2817944;-72
2021/08/17 03:47:20;;;;;;;;;;;;;;;27.09;43.26;98823.42;389221;106;1961052;-70
2021/08/17 03:48:25;;;;;;;;;;;;;;;26.97;43.26;98823.35;365501;108;1959972;-70
2021/08/17 03:49:30;;;;;;;;;;;;;;;26.98;43.23;98824.97;365986;110;1959953;-72
2021/08/17 03:50:35;;;;;;;;;;;;;;;26.97;43.27;98818.62;357721;110;1961010;-71
2021/08/17 03:51:47;;;;;;;;;;;;;;;27.13;43.17;98824.38;397968;104;1961028;-71
2021/08/17 03:52:52;;;;;;;;;;;;;;;27.00;43.29;98828.22;376562;107;1959872;-72
2021/08/17 03:54:05;;;;;;;;;;;;;;;27.17;43.08;98819.00;403375;103;1959947;-72
2021/08/17 03:55:11;;;;;;;;;;;;;;;27.06;43.06;98823.29;377748;107;1960923;-72
2021/08/17 03:56:34;;;;;;;;;;;;;;;27.08;42.95;98824.58;378057;105;1960004;-72
2021/08/17 03:57:39;;;;;;;;;;;;;;;27.13;42.81;98823.58;375662;106;1960017;-71
2021/08/17 03:58:51;;;;;;;;;;;;;;;27.29;42.70;98818.28;401949;103;1960991;-72
2021/08/17 03:59:57;;;;;;;;;;;;;;;27.20;42.67;98829.41;376103;105;1960029;-72
2021/08/17 04:01:09;;;;;;;;;;;;;;;27.32;42.55;98829.49;398868;103;1961091;-72
2021/08/17 04:02:14;;;;;;;;;;;;;;;27.24;42.46;98830.38;373388;106;1959967;-72
2021/08/17 04:03:38;;;;;;;;;;;;;;;27.29;42.49;98832.14;374908;107;1960077;-72
2021/08/17 04:04:50;;;;;;;;;;;;;;;27.44;42.28;98825.16;377240;107;1960001;-72
2021/08/17 04:05:55;;;;;;;;;;;;;;;27.34;42.29;98823.62;334766;109;2027039;-72
2021/08/17 04:07:06;;;;;;;;;;;;;;;27.49;42.27;98824.95;399497;104;1959846;-71
2021/08/17 04:08:11;;;;;;;;;;;;;;;27.39;42.29;98821.45;378975;105;1960016;-71
2021/08/17 04:09:35;;;;;;;;;;;;;;;27.39;42.06;98824.23;375744;107;1960988;-71
2021/08/17 04:10:41;;;;;;;;;;;;;;;27.44;42.03;98828.73;334933;107;2838951;-72
2021/08/17 04:11:57;;;;;;;;;;;;;;;27.58;41.94;98828.48;373783;111;1959853;-72
2021/08/17 04:13:03;;;;;;;;;;;;;;;27.50;41.94;98832.95;338924;113;1960937;-72
2021/08/17 04:14:08;;;;;;;;;;;;;;;27.53;41.83;98823.14;342281;114;1961923;-72
2021/08/17 04:15:13;;;;;;;;;;;;;;;27.59;41.72;98827.32;320017;113;2028968;-72
2021/08/17 04:16:19;;;;;;;;;;;;;;;27.58;41.65;98822.94;341188;114;1959965;-71
2021/08/17 04:17:24;;;;;;;;;;;;;;;27.58;41.47;98815.42;346985;115;1959912;-73
2021/08/17 04:18:36;;;;;;;;;;;;;;;27.74;41.45;98826.70;376267;109;1960038;-73
2021/08/17 04:19:41;;;;;;;;;;;;;;;27.65;41.40;98825.95;358218;113;1960030;-71
2021/08/17 04:20:46;;;;;;;;;;;;;;;27.66;41.34;98833.14;361374;112;1959981;-73
2021/08/17 04:21:58;;;;;;;;;;;;;;;27.85;41.28;98824.34;399566;104;1958886;-72
2021/08/17 04:23:03;;;;;;;;;;;;;;;27.76;41.19;98827.18;379316;107;1958686;-73
2021/08/17 04:24:17;;;;;;;;;;;;;;;27.91;41.06;98825.74;399550;104;1958732;-72
2021/08/17 04:25:22;;;;;;;;;;;;;;;27.83;41.05;98830.22;378907;106;1959980;-72
2021/08/17 04:26:27;;;;;;;;;;;;;;;27.89;40.99;98835.56;380919;106;1959986;-72
2021/08/17 04:27:32;;;;;;;;;;;;;;;27.91;40.95;98822.16;365518;106;1960054;-73
2021/08/17 04:28:37;;;;;;;;;;;;;;;27.94;40.80;98822.28;332148;106;2091067;-73
2021/08/17 04:29:49;;;;;;;;;;;;;;;28.09;40.74;98825.58;398669;104;1960049;-72
2021/08/17 04:30:55;;;;;;;;;;;;;;;27.96;40.79;98831.08;379159;105;1960008;-72
2021/08/17 04:32:07;;;;;;;;;;;;;;;28.11;40.75;98821.30;390317;106;1959962;-72
2021/08/17 04:33:13;;;;;;;;;;;;;;;27.99;40.66;98822.06;369765;108;1960062;-73
2021/08/17 04:34:36;;;;;;;;;;;;;;;28.02;40.67;98826.13;367128;108;1959972;-72
2021/08/17 04:35:40;;;;;;;;;;;;;;;28.05;40.65;98830.98;369049;110;1960295;-73
2021/08/17 04:36:47;;;;;;;;;;;;;;;28.10;40.56;98830.77;368463;110;1960967;-73
2021/08/17 04:37:52;;;;;;;;;;;;;;;28.15;40.52;98827.77;368086;108;1959885;-73
2021/08/17 04:39:05;;;;;;;;;;;;;;;28.26;40.47;98831.76;399404;104;1959981;-73
2021/08/17 04:40:10;;;;;;;;;;;;;;;28.16;40.40;98834.97;369908;107;2934949;-73
2021/08/17 04:41:15;;;;;;;;;;;;;;;28.16;40.45;98831.39;376159;107;1959984;-73
2021/08/17 04:42:21;;;;;;;;;;;;;;;28.18;40.42;98831.83;376502;106;1960041;-70
2021/08/17 04:43:26;;;;;;;;;;;;;;;28.21;40.32;98833.92;379185;107;1960109;-73
2021/08/17 04:44:32;;;;;;;;;;;;;;;28.23;40.30;98837.17;374069;108;1960074;-73
2021/08/17 04:45:37;;;;;;;;;;;;;;;28.29;40.25;98835.81;362420;107;2961991;-73
2021/08/17 04:46:43;;;;;;;;;;;;;;;28.33;40.09;98844.27;353042;107;1959986;-73
2021/08/17 04:47:55;;;;;;;;;;;;;;;28.41;40.02;98835.81;382738;108;1961004;-73
2021/08/17 04:49:08;;;;;;;;;;;;;;;28.48;39.98;98838.07;399054;103;1960052;-73
2021/08/17 04:50:31;;;;;;;;;;;;;;;28.39;39.96;98845.65;380753;105;1960057;-73
2021/08/17 04:51:37;;;;;;;;;;;;;;;28.41;40.02;98848.91;382081;106;1959989;-73
2021/08/17 04:52:41;;;;;;;;;;;;;;;28.42;39.94;98848.57;380180;106;1960942;-73
2021/08/17 04:53:46;;;;;;;;;;;;;;;28.40;39.96;98852.84;363819;110;1961059;-73
2021/08/17 04:54:58;;;;;;;;;;;;;;;28.56;39.92;98851.05;390373;106;1959983;-72
2021/08/17 04:56:04;;;;;;;;;;;;;;;28.45;39.95;98847.91;369115;109;1960020;-73
2021/08/17 04:57:16;;;;;;;;;;;;;;;28.62;39.85;98852.43;399659;104;1959929;-72
2021/08/17 04:58:21;;;;;;;;;;;;;;;28.50;39.85;98852.44;378529;107;1960036;-71
2021/08/17 04:59:55;;;;;;;;;;;;;;;28.51;39.77;98847.69;380551;107;1959983;-73
2021/08/17 05:01:02;;;;;;;;;;;;;;;28.53;39.71;98848.96;363849;110;2858003;-72
2021/08/17 05:02:34;;;;;;;;;;;;;;;28.68;39.69;98842.70;338563;103;2282956;-73
2021/08/17 05:03:39;;;;;;;;;;;;;;;28.60;39.68;98851.16;323924;105;2171858;-72
2021/08/17 05:04:54;;;;;;;;;;;;;;;28.74;39.59;98856.37;388847;104;2945983;-72
2021/08/17 05:05:59;;;;;;;;;;;;;;;28.64;39.60;98852.09;379760;107;1958631;-72
2021/08/17 05:07:11;;;;;;;;;;;;;;;28.74;39.55;98859.98;380958;106;1960038;-72
2021/08/17 05:08:16;;;;;;;;;;;;;;;28.68;39.58;98853.01;328884;108;2126050;-71
2021/08/17 05:09:39;;;;;;;;;;;;;;;28.61;39.62;98853.59;368013;110;1959991;-71
2021/08/17 05:10:51;;;;;;;;;;;;;;;28.75;39.57;98861.59;396316;104;2942001;-72
2021/08/17 05:11:56;;;;;;;;;;;;;;;28.65;39.60;98860.06;384970;105;1959801;-71
2021/08/17 05:13:03;;;;;;;;;;;;;;;28.76;39.45;98859.62;383002;105;1959927;-71
2021/08/17 05:14:15;;;;;;;;;;;;;;;28.89;39.44;98853.70;401422;104;1959975;-71
2021/08/17 05:15:20;;;;;;;;;;;;;;;28.79;39.53;98867.26;385456;105;1960049;-73
2021/08/17 05:16:31;;;;;;;;;;;;;;;28.91;39.54;98868.08;387444;106;1960040;-71
2021/08/17 05:17:37;;;;;;;;;;;;;;;28.78;39.59;98863.67;368976;109;1960028;-71
2021/08/17 05:19:00;;;;;;;;;;;;;;;28.77;39.49;98864.03;300234;111;2276981;-71
2021/08/17 05:20:12;;;;;;;;;;;;;;;28.98;39.43;98873.07;396017;104;1960057;-71
2021/08/17 05:21:22;;;;;;;;;;;;;;;28.86;39.45;98870.28;379763;107;1960022;-72
2021/08/17 05:22:33;;;;;;;;;;;;;;;28.66;39.37;98822.80;386969;106;1961045;-72
2021/08/17 05:23:38;;;;;;;;;;;;;;;28.90;39.37;98871.22;367756;109;1959982;-72
2021/08/17 05:24:50;;;;;;;;;;;;;;;29.00;39.39;98875.48;380595;111;1959939;-71
2021/08/17 05:25:55;;;;;;;;;;;;;;;28.91;39.42;98864.49;361105;111;1959982;-71
2021/08/17 05:27:08;;;;;;;;;;;;;;;29.00;39.45;98867.14;371924;104;2820060;-72
2021/08/17 05:28:13;;;;;;;;;;;;;;;28.86;39.56;98856.38;314087;107;2265065;-71
2021/08/17 05:29:36;;;;;;;;;;;;;;;28.91;39.44;98856.15;370110;107;1962110;-71
2021/08/17 05:30:42;;;;;;;;;;;;;;;28.97;39.46;98857.53;369590;109;1960999;-72
2021/08/17 05:31:53;;;;;;;;;;;;;;;29.11;39.41;98854.45;364147;106;2838012;-71
2021/08/17 05:32:59;;;;;;;;;;;;;;;29.00;39.38;98847.68;371556;109;1960028;-73
2021/08/17 05:34:10;;;;;;;;;;;;;;;29.12;39.36;98847.71;383090;104;1960935;-71
2021/08/17 05:35:16;;;;;;;;;;;;;;;29.08;39.26;98855.12;333965;104;2180963;-72
2021/08/17 05:36:40;;;;;;;;;;;;;;;29.09;39.23;98854.78;382844;105;1961013;-72
2021/08/17 05:37:45;;;;;;;;;;;;;;;29.12;39.19;98858.84;386336;104;1959876;-72
2021/08/17 05:38:51;;;;;;;;;;;;;;;29.15;39.20;98852.56;382797;105;1960099;-72
2021/08/17 05:40:03;;;;;;;;;;;;;;;29.30;39.09;98854.64;385008;104;1961032;-73
2021/08/17 05:41:08;;;;;;;;;;;;;;;29.17;39.19;98864.16;362038;106;1959974;-71
2021/08/17 05:42:20;;;;;;;;;;;;;;;29.34;39.15;98857.52;404054;104;1960023;-72
2021/08/17 05:43:24;;;;;;;;;;;;;;;29.25;39.11;98867.98;382956;105;1961076;-71
2021/08/17 05:44:48;;;;;;;;;;;;;;;29.30;39.05;98867.74;378422;104;1959957;-70
2021/08/17 05:46:03;;;;;;;;;;;;;;;29.46;38.92;98854.72;389074;104;1960022;-72
2021/08/17 05:47:07;;;;;;;;;;;;;;;29.42;38.92;98867.70;376107;107;1959870;-71
2021/08/17 05:48:19;;;;;;;;;;;;;;;29.54;39.03;98862.11;397237;103;1960932;-71
2021/08/17 05:49:25;;;;;;;;;;;;;;;29.43;38.91;98866.55;379534;107;1959882;-70
2021/08/17 05:50:36;;;;;;;;;;;;;;;29.53;38.96;98866.07;399494;103;1959879;-72